LFGD weather

CLOSED Arbois Airfield
Bourgogne-Franche-Comté, France

Public forecast

Using degrees Celsius for public forecast. Weather courtesy of forecast.io.

Closest aviation weather report (METAR) to Arbois Airfield

Closest report is Dole-Tavaux Airport, 15.2 nm (28.2 km) WNW. Retrieved 2020/08/05 16:00 UTC (8 minutes ago):

LFGJ 051600Z AUTO 05012KT 020V080 CAVOK 28/07 Q1015 NOSIG

Closest aviation forecast (TAF) to Arbois Airfield

Forecast is more than 12 hours old.

Closest forecast is Dole-Tavaux Airport, 15.2 nm (28.2 km) WNW. Retrieved 2020/06/22 09:21 UTC (1 month ago):

TAF LFGJ 220800Z 2209/2221 01008KT 9999 FEW035 BKN053 BECMG 2212/2215 CAVOK